Terminal Aerodrome Forecast
Issued by NWS Wilmington, OH

Home | Current Version | Previous Version | Text Only | Print | Product List | Glossary On
Versions: 1 2 3 4 5 6 7 8 9 10 11 12 13 14
950
FTUS41 KILN 080331 AAA
TAFDAY
TAF AMD
KDAY 080331Z 0804/0824 21009KT P6SM BKN070 OVC120
     FM081000 24007KT P6SM BKN070 OVC120
     FM081600 26010KT P6SM VCSH OVC040
     FM082200 27012KT P6SM BKN022 OVC035=

USA.gov is the U.S. government's official web portal to all federal, state and local government web resources and services.